createdAt,value
2023-02-22T00:00:19.879Z,24.20
2023-02-22T00:01:19.886Z,24.21
2023-02-22T00:02:19.898Z,24.22
2023-02-22T00:04:19.854Z,24.25
2023-02-22T00:05:19.835Z,24.25
2023-02-22T00:54:50.841Z,25.14
2023-02-22T00:55:51.821Z,24.43
2023-02-22T00:56:51.811Z,24.30
2023-02-22T00:57:51.796Z,24.31
2023-02-22T00:58:51.791Z,24.29
2023-02-22T00:59:51.788Z,24.22
2023-02-22T01:00:51.835Z,24.22
2023-02-22T01:01:51.752Z,24.12
2023-02-22T01:02:51.741Z,24.18
2023-02-22T01:03:51.733Z,24.09
2023-02-22T01:04:51.731Z,24.12
2023-02-22T01:05:51.740Z,24.10
2023-02-22T01:06:51.710Z,24.10
2023-02-22T01:07:51.695Z,24.16
2023-02-22T01:08:51.697Z,24.10
2023-02-22T01:09:51.711Z,24.12
2023-02-22T01:10:51.706Z,24.09
2023-02-22T01:11:51.667Z,24.09
2023-02-22T01:12:51.668Z,24.10
2023-02-22T01:13:51.650Z,24.04
2023-02-22T01:14:51.649Z,24.07
2023-02-22T01:15:51.626Z,24.06
2023-02-22T01:16:51.691Z,24.04
2023-02-22T01:17:51.620Z,23.99
2023-02-22T01:18:51.624Z,24.02
2023-02-22T01:19:53.910Z,24.03
2023-02-22T01:20:51.588Z,24.01
2023-02-22T01:21:51.587Z,24.08
2023-02-22T01:22:51.586Z,24.08
2023-02-22T01:23:51.557Z,24.07
2023-02-22T01:24:51.540Z,24.05
2023-02-22T01:25:51.553Z,24.04
2023-02-22T01:26:51.566Z,24.05
2023-02-22T01:27:51.529Z,24.05
2023-02-22T01:28:51.523Z,24.04
2023-02-22T01:29:51.498Z,24.00
2023-02-22T01:30:51.619Z,24.03
2023-02-22T01:31:51.490Z,24.01
2023-02-22T01:32:51.498Z,23.96
2023-02-22T01:33:52.395Z,24.01
2023-02-22T01:34:51.464Z,24.01
2023-02-22T01:35:51.451Z,23.98
2023-02-22T01:36:51.434Z,23.95
2023-02-22T01:37:51.461Z,24.02
2023-02-22T01:38:51.420Z,23.99
2023-02-22T01:39:51.412Z,23.98
2023-02-22T01:40:51.434Z,23.99
2023-02-22T01:41:51.385Z,23.97
2023-02-22T01:42:51.926Z,23.99
2023-02-22T01:43:51.370Z,23.99
2023-02-22T01:44:51.367Z,23.95
2023-02-22T01:45:51.363Z,23.96
2023-02-22T01:46:51.335Z,23.92
2023-02-22T01:47:51.332Z,23.96
2023-02-22T01:48:51.325Z,23.99
2023-02-22T01:49:51.337Z,23.99
2023-02-22T01:50:51.311Z,23.96
2023-02-22T01:51:51.289Z,23.95
2023-02-22T01:52:51.292Z,24.00
2023-02-22T01:53:51.272Z,23.98
2023-02-22T01:54:51.274Z,23.97
2023-02-22T01:55:51.272Z,23.98
2023-02-22T01:56:51.264Z,23.98
2023-02-22T01:57:51.257Z,23.98
2023-02-22T01:58:51.259Z,23.95
2023-02-22T01:59:51.217Z,23.91
2023-02-22T02:00:51.218Z,23.89
2023-02-22T02:01:51.205Z,23.94
2023-02-22T02:02:51.200Z,23.97
2023-02-22T02:03:51.212Z,23.98
2023-02-22T02:04:51.210Z,23.91
2023-02-22T02:05:51.187Z,23.92
2023-02-22T02:06:51.151Z,23.89
2023-02-22T02:07:51.148Z,23.91
2023-02-22T02:08:51.150Z,23.91
2023-02-22T02:09:51.122Z,23.92
2023-02-22T02:10:51.118Z,23.90
2023-02-22T02:11:51.112Z,23.88
2023-02-22T02:12:51.106Z,23.90
2023-02-22T02:13:51.101Z,23.89
2023-02-22T02:14:51.112Z,23.90
2023-02-22T02:15:51.072Z,23.94
2023-02-22T02:16:51.132Z,23.88
2023-02-22T02:17:51.059Z,23.89
2023-02-22T02:18:51.057Z,23.88
2023-02-22T02:19:51.032Z,23.89
2023-02-22T02:20:51.030Z,23.91
2023-02-22T02:21:51.022Z,23.91
2023-02-22T02:22:51.004Z,23.90
2023-02-22T02:23:51.002Z,23.89
2023-02-22T02:24:50.987Z,23.89
2023-02-22T02:25:50.983Z,23.89
2023-02-22T02:26:50.976Z,23.91
2023-02-22T02:27:50.958Z,23.90
2023-02-22T02:28:50.950Z,23.88
2023-02-22T02:29:50.943Z,23.88
2023-02-22T02:30:50.961Z,23.88
2023-02-22T02:31:51.198Z,23.85
2023-02-22T02:32:50.912Z,23.85
2023-02-22T02:33:50.916Z,23.82
2023-02-22T02:34:50.918Z,23.84
2023-02-22T02:35:50.889Z,23.82
2023-02-22T02:36:50.876Z,23.85
2023-02-22T02:37:50.897Z,23.83
2023-02-22T02:38:50.943Z,23.82
2023-02-22T02:39:50.880Z,23.80
2023-02-22T02:40:50.850Z,23.84
2023-02-22T02:41:50.833Z,23.84
2023-02-22T02:42:50.821Z,23.82
2023-02-22T02:43:50.851Z,23.82
2023-02-22T02:44:50.803Z,23.80
2023-02-22T02:45:50.818Z,23.83
2023-02-22T02:46:50.831Z,23.79
2023-02-22T02:47:50.775Z,23.80
2023-02-22T02:48:50.778Z,23.81
2023-02-22T02:49:50.752Z,23.83
2023-02-22T02:50:50.745Z,23.84
2023-02-22T02:51:50.743Z,23.83
2023-02-22T02:52:50.728Z,23.82
2023-02-22T02:53:50.724Z,23.84
2023-02-22T02:54:50.709Z,23.84
2023-02-22T02:55:50.715Z,23.80
2023-02-22T02:56:50.699Z,23.82
2023-02-22T02:57:50.677Z,23.80
2023-02-22T02:58:50.676Z,23.79
2023-02-22T02:59:50.660Z,23.82
2023-02-22T03:00:50.656Z,23.77
2023-02-22T03:01:50.716Z,23.71
2023-02-22T03:02:50.673Z,23.72
2023-02-22T03:03:50.624Z,23.74
2023-02-22T03:04:50.615Z,23.80
2023-02-22T03:05:50.610Z,23.77
2023-02-22T03:06:50.603Z,23.82
2023-02-22T03:07:50.601Z,23.82
2023-02-22T03:08:50.612Z,23.75
2023-02-22T03:09:50.573Z,23.78
2023-02-22T03:10:50.566Z,23.76
2023-02-22T03:11:50.550Z,23.78
2023-02-22T03:12:50.543Z,23.75
2023-02-22T03:13:50.538Z,23.76
2023-02-22T03:14:50.522Z,23.79
2023-02-22T03:15:50.514Z,23.80
2023-02-22T03:16:50.512Z,23.77
2023-02-22T03:17:50.501Z,23.74
2023-02-22T03:18:50.515Z,23.76
2023-02-22T03:19:50.479Z,23.72
2023-02-22T03:20:50.470Z,23.74
2023-02-22T03:21:50.464Z,23.72
2023-02-22T03:22:50.463Z,23.76
2023-02-22T03:23:50.447Z,23.74
2023-02-22T03:24:50.442Z,23.69
2023-02-22T03:25:50.420Z,23.67
2023-02-22T03:26:50.411Z,23.67
2023-02-22T03:27:50.407Z,23.67
2023-02-22T03:28:50.395Z,23.71
2023-02-22T03:29:50.453Z,23.74
2023-02-22T03:30:50.480Z,23.72
2023-02-22T03:31:50.397Z,23.70
2023-02-22T03:32:50.360Z,23.70
2023-02-22T03:33:50.344Z,23.73
2023-02-22T03:34:50.371Z,23.72
2023-02-22T03:35:50.335Z,23.71
2023-02-22T03:36:50.969Z,23.75
2023-02-22T03:37:50.939Z,23.73
2023-02-22T03:38:50.304Z,23.71
2023-02-22T03:39:50.296Z,23.75
2023-02-22T03:40:50.284Z,23.73
2023-02-22T03:41:50.281Z,23.72
2023-02-22T03:42:50.264Z,23.76
2023-02-22T03:43:50.261Z,23.71
2023-02-22T03:44:50.252Z,23.70
2023-02-22T03:45:50.945Z,23.71
2023-02-22T03:46:50.240Z,23.70
2023-02-22T03:47:50.237Z,23.72
2023-02-22T03:48:50.208Z,23.70
2023-02-22T03:49:50.199Z,23.67
2023-02-22T03:50:50.224Z,23.67
2023-02-22T03:51:50.188Z,23.66
2023-02-22T03:52:50.174Z,23.65
2023-02-22T03:53:50.164Z,23.67
2023-02-22T03:54:50.155Z,23.66
2023-02-22T03:55:50.138Z,23.70
2023-02-22T03:56:50.141Z,23.63
2023-02-22T03:57:50.125Z,23.69
2023-02-22T03:58:50.125Z,23.71
2023-02-22T03:59:50.113Z,23.65
2023-02-22T04:00:50.095Z,23.65
2023-02-22T04:01:50.088Z,23.65
2023-02-22T04:02:50.108Z,23.61
2023-02-22T04:03:50.066Z,23.63
2023-02-22T04:04:50.129Z,23.64
2023-02-22T04:05:50.049Z,23.65
2023-02-22T04:06:50.071Z,23.66
2023-02-22T04:07:50.032Z,23.61
2023-02-22T04:08:50.045Z,23.64
2023-02-22T04:09:50.016Z,23.63
2023-02-22T04:10:50.001Z,23.61
2023-02-22T04:11:49.991Z,23.60
2023-02-22T04:12:49.983Z,23.60
2023-02-22T04:13:49.980Z,23.59
2023-02-22T04:14:49.967Z,23.60
2023-02-22T04:15:50.011Z,23.56
2023-02-22T04:16:49.944Z,23.59
2023-02-22T04:17:49.935Z,23.60
2023-02-22T04:18:49.927Z,23.62
2023-02-22T04:19:49.931Z,23.55
2023-02-22T04:20:49.912Z,23.56
2023-02-22T04:21:49.905Z,23.58
2023-02-22T04:22:49.921Z,23.59
2023-02-22T04:23:49.887Z,23.63
2023-02-22T04:24:49.874Z,23.56
2023-02-22T04:25:49.873Z,23.52
2023-02-22T04:26:49.924Z,23.60
2023-02-22T04:27:49.970Z,23.59
2023-02-22T04:28:50.456Z,23.55
2023-02-22T04:29:49.829Z,23.53
2023-02-22T04:30:49.828Z,23.57
2023-02-22T04:31:49.825Z,23.61
2023-02-22T04:32:49.794Z,23.60
2023-02-22T04:33:49.797Z,23.54
2023-02-22T04:34:49.777Z,23.50
2023-02-22T04:35:49.790Z,23.55
2023-02-22T04:36:49.759Z,23.55
2023-02-22T04:37:49.749Z,23.49
2023-02-22T04:38:49.765Z,23.44
2023-02-22T04:39:49.782Z,23.50
2023-02-22T04:40:49.724Z,23.56
2023-02-22T04:41:49.720Z,23.54
2023-02-22T04:42:49.705Z,23.55
2023-02-22T04:43:49.694Z,23.56
2023-02-22T04:44:49.688Z,23.51
2023-02-22T04:45:49.677Z,23.55
2023-02-22T04:46:49.667Z,23.49
2023-02-22T04:47:49.660Z,23.57
2023-02-22T04:48:49.649Z,23.54
2023-02-22T04:49:49.639Z,23.56
2023-02-22T04:50:49.631Z,23.54
2023-02-22T04:51:49.625Z,23.55
2023-02-22T04:52:49.614Z,23.59
2023-02-22T04:53:49.607Z,23.56
2023-02-22T04:54:49.639Z,23.57
2023-02-22T04:55:49.585Z,23.51
2023-02-22T04:56:49.572Z,23.50
2023-02-22T04:57:49.568Z,23.50
2023-02-22T04:58:49.561Z,23.50
2023-02-22T04:59:49.555Z,23.56
2023-02-22T05:00:49.542Z,23.47
2023-02-22T05:01:49.543Z,23.48
2023-02-22T05:02:49.603Z,23.46
2023-02-22T05:03:49.511Z,23.48
2023-02-22T05:04:49.556Z,23.45
2023-02-22T05:05:49.493Z,23.46
2023-02-22T05:06:49.486Z,23.51
2023-02-22T05:07:49.475Z,23.45
2023-02-22T05:08:49.462Z,23.51
2023-02-22T05:09:49.456Z,23.51
2023-02-22T05:10:49.473Z,23.52
2023-02-22T05:11:49.486Z,23.48
2023-02-22T05:12:49.431Z,23.47
2023-02-22T05:13:49.422Z,23.48
2023-02-22T05:14:49.421Z,23.46
2023-02-22T05:15:49.429Z,23.50
2023-02-22T05:16:49.383Z,23.55
2023-02-22T05:17:49.377Z,23.48
2023-02-22T05:18:49.373Z,23.52
2023-02-22T05:19:49.992Z,23.48
2023-02-22T05:20:49.354Z,23.49
2023-02-22T05:21:49.349Z,23.51
2023-02-22T05:22:49.331Z,23.46
2023-02-22T05:23:49.316Z,23.46
2023-02-22T05:24:49.311Z,23.48
2023-02-22T05:25:49.308Z,23.47
2023-02-22T05:26:49.326Z,23.50
2023-02-22T05:27:49.287Z,23.47
2023-02-22T05:28:49.281Z,23.50
2023-02-22T05:29:49.261Z,23.50
2023-02-22T05:30:49.260Z,23.49
2023-02-22T05:31:49.354Z,23.47
2023-02-22T05:32:49.249Z,23.41
2023-02-22T05:33:49.228Z,23.44
2023-02-22T05:34:49.219Z,23.47
2023-02-22T05:35:49.208Z,23.44
2023-02-22T05:36:49.208Z,23.47
2023-02-22T05:37:49.196Z,23.39
2023-02-22T05:38:49.182Z,23.41
2023-02-22T05:39:49.180Z,23.49
2023-02-22T05:40:49.163Z,23.48
2023-02-22T05:41:49.167Z,23.48
2023-02-22T05:42:49.212Z,23.49
2023-02-22T05:44:49.131Z,23.44
2023-02-22T05:45:49.119Z,23.46
2023-02-22T05:46:49.160Z,23.47
2023-02-22T05:47:49.104Z,23.46
2023-02-22T05:48:49.095Z,23.46
2023-02-22T05:49:49.088Z,23.47
2023-02-22T05:50:49.074Z,23.45
2023-02-22T05:51:49.065Z,23.44
2023-02-22T05:53:49.042Z,23.42
2023-02-22T05:54:49.988Z,23.42
2023-02-22T05:55:49.025Z,23.39
2023-02-22T05:56:49.014Z,23.41
2023-02-22T05:57:49.006Z,23.43
2023-02-22T05:58:49.109Z,23.42
2023-02-22T05:59:48.984Z,23.43
2023-02-22T06:00:48.977Z,23.40
2023-02-22T06:01:48.991Z,23.43
2023-02-22T06:02:48.966Z,23.42
2023-02-22T06:03:48.954Z,23.42
2023-02-22T06:04:48.940Z,23.36
2023-02-22T06:05:48.960Z,23.41
2023-02-22T06:06:48.922Z,23.40
2023-02-22T06:07:48.914Z,23.42
2023-02-22T06:08:48.899Z,23.39
2023-02-22T06:09:48.900Z,23.36
2023-02-22T06:10:48.884Z,23.40
2023-02-22T06:11:48.872Z,23.42
2023-02-22T06:12:48.878Z,23.33
2023-02-22T06:13:48.857Z,23.34
2023-02-22T06:14:48.869Z,23.37
2023-02-22T06:15:48.834Z,23.38
2023-02-22T06:16:48.826Z,23.30
2023-02-22T06:17:48.999Z,23.34
2023-02-22T06:18:48.869Z,23.31
2023-02-22T06:19:48.810Z,23.23
2023-02-22T06:20:48.806Z,23.40
2023-02-22T06:21:48.789Z,23.40
2023-02-22T06:22:49.362Z,23.46
2023-02-22T06:23:50.165Z,23.56
2023-02-22T06:24:48.751Z,23.58
2023-02-22T06:25:48.748Z,23.65
2023-02-22T06:26:48.764Z,23.70
2023-02-22T06:28:48.715Z,23.70
2023-02-22T06:29:48.712Z,23.73
2023-02-22T06:30:48.786Z,23.75
2023-02-22T06:31:48.793Z,23.86
2023-02-22T06:32:48.688Z,23.88
2023-02-22T06:34:48.670Z,23.95
2023-02-22T06:36:48.664Z,24.10
2023-02-22T06:37:48.668Z,24.11
2023-02-22T06:39:48.615Z,24.15
2023-02-22T06:40:48.613Z,24.21
2023-02-22T06:41:48.706Z,24.28
2023-02-22T06:42:48.600Z,24.31
2023-02-22T06:44:49.741Z,24.45
2023-02-22T06:45:48.639Z,24.54
2023-02-22T06:46:48.594Z,24.57
2023-02-22T06:47:48.559Z,24.69
2023-02-22T06:49:48.533Z,24.73
2023-02-22T06:50:48.590Z,24.84
2023-02-22T06:51:48.500Z,24.87
2023-02-22T06:52:48.492Z,24.89
2023-02-22T06:53:48.541Z,25.17
2023-02-22T06:55:48.471Z,25.12
2023-02-22T07:00:49.458Z,25.07
2023-02-22T07:03:04.099Z,25.19
2023-02-22T07:03:51.738Z,25.11
2023-02-22T07:04:51.589Z,25.08
2023-02-22T07:25:48.197Z,24.67
2023-02-22T07:26:48.226Z,24.74
2023-02-22T07:42:48.043Z,24.43
2023-02-22T07:45:48.129Z,24.57
2023-02-22T07:52:47.951Z,24.40
2023-02-22T07:54:48.041Z,24.42
2023-02-22T08:01:51.243Z,24.30
2023-02-22T08:15:47.777Z,23.49
2023-02-22T08:32:47.753Z,23.28
2023-02-22T08:34:47.573Z,23.27
2023-02-22T08:40:47.521Z,24.29
2023-02-22T08:42:47.502Z,24.48
2023-02-22T08:43:47.501Z,24.44
2023-02-22T08:44:47.478Z,24.20
2023-02-22T08:45:47.649Z,24.12
2023-02-22T08:48:47.439Z,24.27
2023-02-22T08:49:47.591Z,24.41
2023-02-22T08:52:47.414Z,25.01
2023-02-22T08:54:47.404Z,20.72
2023-02-22T08:56:47.549Z,21.91
2023-02-22T08:58:47.343Z,22.68
2023-02-22T09:02:47.306Z,24.18
2023-02-22T09:03:47.394Z,24.48
2023-02-22T09:04:47.292Z,24.82
2023-02-22T09:05:47.628Z,24.78
2023-02-22T09:07:47.342Z,24.91
2023-02-22T09:08:47.246Z,24.79
2023-02-22T09:09:47.243Z,24.52
2023-02-22T09:11:47.219Z,25.19
2023-02-22T09:12:47.224Z,25.31
2023-02-22T09:13:47.199Z,25.07
2023-02-22T09:14:47.193Z,25.29
2023-02-22T09:17:47.172Z,25.29
2023-02-22T09:18:47.152Z,24.99
2023-02-22T09:19:47.145Z,25.24
2023-02-22T09:20:47.152Z,24.92
2023-02-22T09:21:47.132Z,25.28
2023-02-22T09:23:47.109Z,24.77
2023-02-22T09:25:47.083Z,24.36
2023-02-22T09:26:47.125Z,24.41
2023-02-22T09:27:47.074Z,24.41
2023-02-22T09:28:47.060Z,24.34
2023-02-22T09:30:47.147Z,24.37
2023-02-22T09:31:47.090Z,24.38
2023-02-22T09:32:47.321Z,24.39
2023-02-22T09:33:47.545Z,24.80
2023-02-22T09:34:47.002Z,24.77
2023-02-22T09:35:46.995Z,24.79
2023-02-22T09:36:47.064Z,24.71
2023-02-22T09:37:47.020Z,24.37
2023-02-22T09:38:46.982Z,24.34
2023-02-22T09:40:46.958Z,24.90
2023-02-22T09:41:47.065Z,25.39
2023-02-22T09:42:46.950Z,26.30
2023-02-22T09:43:46.924Z,26.75
2023-02-22T09:44:46.919Z,26.92
2023-02-22T09:45:46.984Z,26.75
2023-02-22T09:46:47.069Z,26.98
2023-02-22T09:47:46.922Z,27.02
2023-02-22T09:48:46.880Z,27.03
2023-02-22T09:49:46.858Z,27.06
2023-02-22T09:50:46.906Z,27.03
2023-02-22T09:52:46.837Z,26.99
2023-02-22T09:54:46.831Z,27.03
2023-02-22T09:55:46.809Z,27.10
2023-02-22T09:56:46.804Z,27.05
2023-02-22T09:57:46.789Z,27.09
2023-02-22T09:58:46.806Z,27.07
2023-02-22T09:59:46.799Z,27.12
2023-02-22T10:00:46.763Z,27.20
2023-02-22T10:01:46.754Z,27.16
2023-02-22T10:02:46.750Z,27.27
2023-02-22T10:03:46.805Z,27.31
2023-02-22T10:05:49.935Z,27.44
2023-02-22T10:07:47.330Z,27.49
2023-02-22T10:08:46.702Z,27.58
2023-02-22T10:09:46.688Z,27.66
2023-02-22T10:10:46.676Z,27.74
2023-02-22T10:13:46.660Z,27.94
2023-02-22T10:14:46.666Z,28.04
2023-02-22T10:15:46.631Z,28.08
2023-02-22T10:17:46.610Z,28.21
2023-02-22T10:18:46.604Z,28.31
2023-02-22T10:19:46.592Z,28.34
2023-02-22T10:20:46.588Z,28.44
2023-02-22T10:21:46.586Z,28.47
2023-02-22T10:22:46.584Z,28.60
2023-02-22T10:23:47.115Z,28.62
2023-02-22T10:24:46.552Z,28.43
2023-02-22T10:25:46.594Z,23.77
2023-02-22T10:26:46.575Z,23.32
2023-02-22T10:27:46.518Z,22.17
2023-02-22T10:28:46.516Z,22.39
2023-02-22T10:29:46.503Z,22.83
2023-02-22T10:30:46.546Z,24.26
2023-02-22T10:31:46.775Z,24.91
2023-02-22T10:32:46.478Z,23.15
2023-02-22T10:33:46.474Z,23.96
2023-02-22T10:34:46.458Z,21.96
2023-02-22T10:35:47.160Z,22.24
2023-02-22T10:36:46.445Z,21.98
2023-02-22T10:37:46.698Z,22.41
2023-02-22T10:38:46.424Z,22.80
2023-02-22T10:39:46.471Z,22.83
2023-02-22T10:40:46.402Z,22.52
2023-02-22T10:41:46.408Z,22.48
2023-02-22T10:42:46.588Z,22.97
2023-02-22T10:43:46.386Z,21.66
2023-02-22T10:44:46.375Z,22.07
2023-02-22T10:45:46.477Z,22.29
2023-02-22T10:46:46.377Z,22.10
2023-02-22T10:47:46.350Z,22.43
2023-02-22T10:48:46.349Z,22.06
2023-02-22T10:49:46.337Z,21.74
2023-02-22T10:50:46.322Z,21.46
2023-02-22T10:51:46.311Z,21.24
2023-02-22T10:52:46.310Z,21.41
2023-02-22T10:53:46.300Z,21.64
2023-02-22T10:54:46.286Z,21.64
2023-02-22T10:55:46.312Z,22.02
2023-02-22T10:56:46.274Z,22.01
2023-02-22T10:58:46.253Z,21.38
2023-02-22T10:59:46.292Z,21.23
2023-02-22T11:00:46.769Z,20.98
2023-02-22T11:01:46.274Z,21.00
2023-02-22T11:02:46.264Z,21.50
2023-02-22T11:03:46.206Z,21.39
2023-02-22T11:04:46.238Z,21.42
2023-02-22T11:05:46.186Z,21.48
2023-02-22T11:06:46.179Z,21.94
2023-02-22T11:07:46.177Z,22.05
2023-02-22T11:08:46.156Z,22.09
2023-02-22T11:09:46.149Z,22.44
2023-02-22T11:10:46.150Z,22.31
2023-02-22T11:13:23.433Z,22.72
2023-02-22T11:14:24.701Z,22.61
2023-02-22T11:15:24.415Z,22.86
2023-02-22T11:16:24.505Z,22.96
2023-02-22T11:17:24.391Z,22.56
2023-02-22T11:18:24.400Z,22.38
2023-02-22T11:19:24.416Z,22.56
2023-02-22T11:20:24.637Z,22.80
2023-02-22T11:21:24.350Z,22.72
2023-02-22T11:22:24.372Z,22.57
2023-02-22T11:23:24.436Z,22.82
2023-02-22T11:24:24.393Z,23.32
2023-02-22T11:25:24.321Z,23.62
2023-02-22T11:26:24.313Z,23.42
2023-02-22T11:27:24.311Z,23.63
2023-02-22T11:28:25.116Z,23.70
2023-02-22T11:29:24.403Z,24.13
2023-02-22T11:30:24.307Z,23.36
2023-02-22T11:31:24.292Z,23.30
2023-02-22T11:32:24.308Z,23.45
2023-02-22T11:33:24.260Z,23.42
2023-02-22T11:34:24.346Z,23.06
2023-02-22T11:35:24.257Z,23.10
2023-02-22T11:36:24.245Z,22.92
2023-02-22T11:37:24.643Z,22.88
2023-02-22T11:38:24.225Z,23.10
2023-02-22T11:39:24.254Z,22.82
2023-02-22T11:40:24.749Z,23.26
2023-02-22T11:41:24.223Z,23.05
2023-02-22T11:42:24.178Z,23.19
2023-02-22T11:43:24.153Z,23.36
2023-02-22T11:44:24.162Z,23.64
2023-02-22T11:45:24.679Z,23.33
2023-02-22T11:46:24.163Z,23.43
2023-02-22T11:47:24.113Z,23.47
2023-02-22T11:48:25.100Z,23.31
2023-02-22T11:49:24.094Z,23.18
2023-02-22T11:50:24.110Z,23.19
2023-02-22T11:51:24.135Z,23.58
2023-02-22T11:52:26.159Z,23.46
2023-02-22T11:53:24.052Z,23.21
2023-02-22T11:54:24.042Z,23.82
2023-02-22T11:55:36.301Z,23.84
2023-02-22T11:56:36.863Z,24.01
2023-02-22T11:57:24.026Z,23.78
2023-02-22T11:58:24.010Z,23.69
2023-02-22T11:59:24.144Z,23.71
2023-02-22T12:00:23.993Z,23.51
2023-02-22T12:01:23.987Z,23.64
2023-02-22T12:02:23.978Z,22.92
2023-02-22T12:03:23.983Z,23.37
2023-02-22T12:04:24.027Z,23.59
2023-02-22T12:05:23.947Z,23.16
2023-02-22T12:06:23.991Z,23.34
2023-02-22T12:07:23.932Z,23.70
2023-02-22T12:08:23.923Z,23.39
2023-02-22T12:09:23.916Z,23.58
2023-02-22T12:10:23.904Z,23.77
2023-02-22T12:11:23.912Z,23.40
2023-02-22T12:12:24.144Z,23.96
2023-02-22T12:13:24.617Z,24.10
2023-02-22T12:14:24.135Z,24.01
2023-02-22T12:15:23.852Z,23.75
2023-02-22T12:16:23.846Z,23.59
2023-02-22T12:17:23.850Z,23.54
2023-02-22T12:18:23.832Z,23.71
2023-02-22T12:19:23.853Z,23.90
2023-02-22T12:20:24.617Z,23.56
2023-02-22T12:21:23.812Z,23.78
2023-02-22T12:22:23.817Z,23.58
2023-02-22T12:23:23.785Z,23.52
2023-02-22T12:24:23.784Z,23.31
2023-02-22T12:25:23.765Z,23.46
2023-02-22T12:26:23.758Z,23.40
2023-02-22T12:27:23.771Z,23.42
2023-02-22T12:28:24.988Z,23.60
2023-02-22T12:29:23.909Z,23.19
2023-02-22T12:30:24.000Z,23.14
2023-02-22T12:31:23.917Z,23.13
2023-02-22T12:32:24.028Z,23.42
2023-02-22T12:33:24.127Z,23.50
2023-02-22T12:34:23.884Z,23.54
2023-02-22T12:35:23.854Z,23.41
2023-02-22T12:36:24.638Z,23.28
2023-02-22T12:37:23.838Z,23.03
2023-02-22T12:38:24.253Z,23.09
2023-02-22T12:39:23.812Z,23.07
2023-02-22T12:40:23.805Z,22.74
2023-02-22T12:41:23.797Z,22.63
2023-02-22T12:42:23.785Z,22.61
2023-02-22T12:43:23.780Z,22.73
2023-02-22T12:44:23.773Z,22.94
2023-02-22T12:45:23.758Z,22.79
2023-02-22T12:46:23.772Z,22.81
2023-02-22T12:47:23.739Z,22.95
2023-02-22T12:48:23.732Z,23.04
2023-02-22T12:49:23.718Z,22.91
2023-02-22T12:50:23.714Z,22.84
2023-02-22T12:51:24.639Z,22.95
2023-02-22T12:52:23.698Z,22.99
2023-02-22T12:53:23.684Z,22.93
2023-02-22T12:54:23.733Z,23.15
2023-02-22T12:55:23.667Z,23.34
2023-02-22T12:56:23.656Z,23.47
2023-02-22T12:57:23.654Z,23.39
2023-02-22T12:58:23.642Z,23.17
2023-02-22T12:59:24.133Z,22.95
2023-02-22T13:00:23.645Z,22.70
2023-02-22T13:01:23.640Z,22.45
2023-02-22T13:02:23.598Z,22.29
2023-02-22T13:03:23.597Z,21.94
2023-02-22T13:04:23.608Z,21.91
2023-02-22T13:05:23.681Z,21.94
2023-02-22T13:06:23.576Z,23.32
2023-02-22T13:07:23.563Z,23.92
2023-02-22T13:08:23.551Z,23.98
2023-02-22T13:09:24.137Z,24.14
2023-02-22T13:10:23.581Z,24.05
2023-02-22T13:11:23.673Z,23.98
2023-02-22T13:12:24.141Z,23.96
2023-02-22T13:13:24.144Z,24.35
2023-02-22T13:14:23.495Z,24.59
2023-02-22T13:15:23.483Z,25.14
2023-02-22T13:16:24.138Z,25.35
2023-02-22T13:17:23.473Z,25.56
2023-02-22T13:18:23.469Z,25.70
2023-02-22T13:19:24.143Z,25.74
2023-02-22T13:21:23.426Z,25.79
2023-02-22T13:22:25.290Z,25.93
2023-02-22T13:23:23.641Z,26.11
2023-02-22T13:24:23.397Z,26.98
2023-02-22T13:25:24.142Z,27.19
2023-02-22T13:26:24.176Z,27.07
2023-02-22T13:27:24.138Z,27.07
2023-02-22T13:28:23.381Z,26.67
2023-02-22T13:29:23.354Z,26.38
2023-02-22T13:30:22.396Z,26.19
2023-02-22T13:31:23.358Z,26.07
2023-02-22T13:32:24.307Z,25.96
2023-02-22T13:33:23.647Z,25.98
2023-02-22T13:34:23.309Z,26.04
2023-02-22T13:35:23.649Z,26.19
2023-02-22T13:36:23.289Z,26.45
2023-02-22T13:37:23.279Z,26.53
2023-02-22T13:38:23.266Z,26.65
2023-02-22T13:39:23.261Z,26.75
2023-02-22T13:40:23.264Z,26.73
2023-02-22T13:41:23.246Z,26.67
2023-02-22T13:42:23.260Z,26.69
2023-02-22T13:43:23.257Z,26.70
2023-02-22T13:44:23.212Z,26.64
2023-02-22T13:45:23.230Z,26.57
2023-02-22T13:46:23.283Z,26.52
2023-02-22T13:47:23.190Z,26.47
2023-02-22T13:48:23.669Z,26.44
2023-02-22T13:51:23.150Z,26.35
2023-02-22T13:52:23.147Z,26.26
2023-02-22T13:53:23.132Z,26.22
2023-02-22T13:54:23.160Z,26.19
2023-02-22T13:57:23.112Z,26.08
2023-02-22T13:58:23.113Z,26.06
2023-02-22T13:59:23.148Z,26.01
2023-02-22T14:00:25.647Z,25.96
2023-02-22T14:01:23.097Z,25.94
2023-02-22T14:02:25.649Z,25.89
2023-02-22T14:05:23.103Z,25.81
2023-02-22T14:07:23.008Z,25.69
2023-02-22T14:08:23.006Z,25.67
2023-02-22T14:09:23.000Z,25.64
2023-02-22T14:10:25.652Z,25.58
2023-02-22T14:11:23.157Z,25.58
2023-02-22T14:12:23.049Z,25.55
2023-02-22T14:13:23.161Z,25.51
2023-02-22T14:14:22.976Z,25.49
2023-02-22T14:15:30.046Z,25.44
2023-02-22T14:22:25.668Z,25.24
2023-02-22T14:23:23.282Z,25.25
2023-02-22T14:25:28.009Z,25.21
2023-02-22T14:30:25.746Z,25.08
2023-02-22T14:31:35.419Z,25.06
2023-02-22T14:39:25.684Z,24.90
2023-02-22T14:55:25.663Z,24.64
2023-02-22T14:58:22.694Z,24.60
2023-02-22T14:59:22.682Z,24.62
2023-02-22T15:00:22.749Z,24.59
2023-02-22T15:01:25.464Z,24.60
2023-02-22T15:02:22.849Z,24.58
2023-02-22T15:03:22.749Z,24.56
2023-02-22T15:04:22.789Z,24.56
2023-02-22T15:05:22.730Z,24.55
2023-02-22T15:06:22.722Z,24.54
2023-02-22T15:07:23.673Z,24.54
2023-02-22T15:08:22.713Z,24.51
2023-02-22T15:09:28.926Z,24.53
2023-02-22T15:10:22.682Z,24.52
2023-02-22T15:11:22.677Z,24.51
2023-02-22T15:12:22.748Z,24.50
2023-02-22T15:13:22.695Z,24.48
2023-02-22T15:14:26.279Z,24.47
2023-02-22T15:15:23.186Z,24.50
2023-02-22T15:16:23.305Z,24.48
2023-02-22T15:17:22.629Z,24.47
2023-02-22T15:18:22.771Z,24.45
2023-02-22T15:19:23.175Z,24.45
2023-02-22T15:20:23.174Z,24.44
2023-02-22T15:21:22.677Z,24.42
2023-02-22T15:22:22.601Z,24.41
2023-02-22T15:23:23.183Z,24.40
2023-02-22T15:24:22.569Z,24.39
2023-02-22T15:25:23.186Z,24.40
2023-02-22T15:26:22.583Z,24.38
2023-02-22T15:27:22.545Z,24.39
2023-02-22T15:28:29.196Z,24.37
2023-02-22T15:29:22.525Z,24.41
2023-02-22T15:30:22.575Z,24.38
2023-02-22T15:31:22.554Z,24.38
2023-02-22T15:32:22.652Z,24.37
2023-02-22T15:33:22.513Z,24.37
2023-02-22T15:34:22.555Z,24.37
2023-02-22T15:35:22.481Z,24.37
2023-02-22T15:36:22.713Z,24.35
2023-02-22T15:37:22.459Z,24.37
2023-02-22T15:39:22.438Z,24.36
2023-02-22T15:40:22.433Z,24.36
2023-02-22T15:41:23.378Z,24.36
2023-02-22T15:42:22.415Z,24.37
2023-02-22T15:43:22.414Z,24.35
2023-02-22T15:44:29.196Z,24.37
2023-02-22T15:45:22.392Z,24.38
2023-02-22T15:46:22.383Z,24.35
2023-02-22T15:47:22.374Z,24.36
2023-02-22T15:48:23.190Z,24.34
2023-02-22T15:49:22.362Z,24.32
2023-02-22T15:50:22.370Z,24.32
2023-02-22T15:51:23.193Z,24.34
2023-02-22T15:52:22.331Z,24.31
2023-02-22T15:53:25.197Z,24.33
2023-02-22T15:54:27.572Z,24.33
2023-02-22T15:55:24.761Z,24.33
2023-02-22T15:56:22.289Z,24.34
2023-02-22T15:57:22.282Z,24.32
2023-02-22T15:58:22.288Z,24.29
2023-02-22T15:59:23.198Z,24.31
2023-02-22T16:00:22.273Z,24.30
2023-02-22T16:01:22.364Z,24.29
2023-02-22T16:02:25.286Z,24.30
2023-02-22T16:03:22.234Z,24.30
2023-02-22T16:04:22.236Z,24.30
2023-02-22T16:05:25.228Z,24.28
2023-02-22T16:06:25.204Z,24.30
2023-02-22T16:07:22.200Z,24.28
2023-02-22T16:08:22.196Z,24.27
2023-02-22T16:09:22.179Z,24.28
2023-02-22T16:10:22.704Z,24.26
2023-02-22T16:11:22.163Z,24.26
2023-02-22T16:12:22.175Z,24.27
2023-02-22T16:13:31.606Z,24.28
2023-02-22T16:14:22.204Z,24.28
2023-02-22T16:15:22.135Z,24.29
2023-02-22T16:16:22.216Z,24.28
2023-02-22T16:17:22.729Z,24.29
2023-02-22T16:18:22.128Z,24.29
2023-02-22T16:19:22.206Z,24.26
2023-02-22T16:20:22.092Z,24.27
2023-02-22T16:21:22.729Z,24.27
2023-02-22T16:22:22.072Z,24.27
2023-02-22T16:23:22.702Z,24.27
2023-02-22T16:24:22.211Z,24.25
2023-02-22T16:25:22.053Z,24.26
2023-02-22T16:26:22.043Z,24.27
2023-02-22T16:27:22.039Z,24.28
2023-02-22T16:28:22.022Z,24.26
2023-02-22T16:30:24.720Z,24.28
2023-02-22T16:31:22.260Z,24.27
2023-02-22T16:32:22.722Z,24.28
2023-02-22T16:33:21.971Z,24.28
2023-02-22T16:34:22.712Z,24.29